sensor_id;sensor_type;location;lat;lon;timestamp;P1;durP1;ratioP1;P2;durP2;ratioP2
26474;SDS011;14161;52.270;10.334;2023-10-08T00:01:08;0.20;;;0.20;;
26474;SDS011;14161;52.270;10.334;2023-10-08T00:03:39;0.10;;;0.10;;
26474;SDS011;14161;52.270;10.334;2023-10-08T00:06:06;0.10;;;0.10;;
26474;SDS011;14161;52.270;10.334;2023-10-08T00:08:32;0.00;;;0.00;;
26474;SDS011;14161;52.270;10.334;2023-10-08T00:10:58;0.00;;;0.00;;
26474;SDS011;14161;52.270;10.334;2023-10-08T00:13:31;0.05;;;0.05;;
26474;SDS011;14161;52.270;10.334;2023-10-08T00:16:01;0.10;;;0.10;;
26474;SDS011;14161;52.270;10.334;2023-10-08T00:18:26;0.00;;;0.00;;
26474;SDS011;14161;52.270;10.334;2023-10-08T00:20:51;0.10;;;0.10;;
26474;SDS011;14161;52.270;10.334;2023-10-08T00:23:23;0.20;;;0.20;;
26474;SDS011;14161;52.270;10.334;2023-10-08T00:25:54;0.15;;;0.10;;
26474;SDS011;14161;52.270;10.334;2023-10-08T00:28:20;0.10;;;0.10;;
26474;SDS011;14161;52.270;10.334;2023-10-08T00:30:46;0.10;;;0.10;;
26474;SDS011;14161;52.270;10.334;2023-10-08T00:33:13;0.10;;;0.10;;
26474;SDS011;14161;52.270;10.334;2023-10-08T00:35:40;0.10;;;0.10;;
26474;SDS011;14161;52.270;10.334;2023-10-08T00:38:10;0.10;;;0.10;;
26474;SDS011;14161;52.270;10.334;2023-10-08T00:40:45;0.10;;;0.10;;
26474;SDS011;14161;52.270;10.334;2023-10-08T00:43:33;0.10;;;0.10;;
26474;SDS011;14161;52.270;10.334;2023-10-08T00:46:04;0.10;;;0.10;;
26474;SDS011;14161;52.270;10.334;2023-10-08T00:48:30;0.47;;;0.20;;
26474;SDS011;14161;52.270;10.334;2023-10-08T00:51:04;0.00;;;0.00;;
26474;SDS011;14161;52.270;10.334;2023-10-08T00:54:00;0.15;;;0.10;;
26474;SDS011;14161;52.270;10.334;2023-10-08T00:56:34;0.10;;;0.10;;
26474;SDS011;14161;52.270;10.334;2023-10-08T00:59:22;0.20;;;0.10;;
26474;SDS011;14161;52.270;10.334;2023-10-08T01:01:51;0.00;;;0.00;;
26474;SDS011;14161;52.270;10.334;2023-10-08T01:04:21;0.28;;;0.17;;
26474;SDS011;14161;52.270;10.334;2023-10-08T01:07:02;0.98;;;0.40;;
26474;SDS011;14161;52.270;10.334;2023-10-08T01:09:37;0.30;;;0.25;;
26474;SDS011;14161;52.270;10.334;2023-10-08T01:12:09;1.30;;;0.50;;
26474;SDS011;14161;52.270;10.334;2023-10-08T01:14:48;1.05;;;0.60;;
26474;SDS011;14161;52.270;10.334;2023-10-08T01:17:14;3.17;;;0.60;;
26474;SDS011;14161;52.270;10.334;2023-10-08T01:19:42;3.70;;;0.73;;
26474;SDS011;14161;52.270;10.334;2023-10-08T01:22:10;3.40;;;0.70;;
26474;SDS011;14161;52.270;10.334;2023-10-08T01:24:41;4.10;;;0.70;;
26474;SDS011;14161;52.270;10.334;2023-10-08T01:27:07;4.18;;;1.30;;
26474;SDS011;14161;52.270;10.334;2023-10-08T01:29:36;1.25;;;0.60;;
26474;SDS011;14161;52.270;10.334;2023-10-08T01:32:02;3.03;;;0.90;;
26474;SDS011;14161;52.270;10.334;2023-10-08T01:34:28;2.38;;;0.80;;
26474;SDS011;14161;52.270;10.334;2023-10-08T01:37:00;3.13;;;0.90;;
26474;SDS011;14161;52.270;10.334;2023-10-08T01:39:30;2.08;;;0.55;;
26474;SDS011;14161;52.270;10.334;2023-10-08T01:41:57;1.80;;;0.63;;
26474;SDS011;14161;52.270;10.334;2023-10-08T01:44:22;2.28;;;0.68;;
26474;SDS011;14161;52.270;10.334;2023-10-08T01:46:49;2.35;;;0.90;;
26474;SDS011;14161;52.270;10.334;2023-10-08T01:49:15;1.23;;;0.60;;
26474;SDS011;14161;52.270;10.334;2023-10-08T01:51:41;1.95;;;0.70;;
26474;SDS011;14161;52.270;10.334;2023-10-08T01:54:14;2.22;;;0.70;;
26474;SDS011;14161;52.270;10.334;2023-10-08T01:56:42;2.42;;;0.88;;
26474;SDS011;14161;52.270;10.334;2023-10-08T01:59:09;1.52;;;0.70;;
26474;SDS011;14161;52.270;10.334;2023-10-08T02:01:36;1.67;;;0.93;;
26474;SDS011;14161;52.270;10.334;2023-10-08T02:04:03;2.47;;;0.77;;
26474;SDS011;14161;52.270;10.334;2023-10-08T02:06:33;2.78;;;1.10;;
26474;SDS011;14161;52.270;10.334;2023-10-08T02:08:59;4.05;;;1.50;;
26474;SDS011;14161;52.270;10.334;2023-10-08T02:11:30;3.05;;;1.35;;
26474;SDS011;14161;52.270;10.334;2023-10-08T02:13:57;3.47;;;0.90;;
26474;SDS011;14161;52.270;10.334;2023-10-08T02:16:23;1.42;;;0.57;;
26474;SDS011;14161;52.270;10.334;2023-10-08T02:18:48;2.30;;;0.60;;
26474;SDS011;14161;52.270;10.334;2023-10-08T02:21:16;1.88;;;0.70;;
26474;SDS011;14161;52.270;10.334;2023-10-08T02:23:41;2.58;;;0.70;;
26474;SDS011;14161;52.270;10.334;2023-10-08T02:26:08;1.45;;;0.50;;
26474;SDS011;14161;52.270;10.334;2023-10-08T02:28:35;4.10;;;0.90;;
26474;SDS011;14161;52.270;10.334;2023-10-08T02:31:03;2.28;;;1.23;;
26474;SDS011;14161;52.270;10.334;2023-10-08T02:33:29;2.13;;;0.73;;
26474;SDS011;14161;52.270;10.334;2023-10-08T02:35:55;0.90;;;0.63;;
26474;SDS011;14161;52.270;10.334;2023-10-08T02:38:21;2.35;;;0.75;;
26474;SDS011;14161;52.270;10.334;2023-10-08T02:40:47;3.70;;;1.10;;
26474;SDS011;14161;52.270;10.334;2023-10-08T02:43:14;2.20;;;0.70;;
26474;SDS011;14161;52.270;10.334;2023-10-08T02:45:41;2.95;;;0.77;;
26474;SDS011;14161;52.270;10.334;2023-10-08T02:48:07;1.67;;;0.70;;
26474;SDS011;14161;52.270;10.334;2023-10-08T02:50:40;2.10;;;0.80;;
26474;SDS011;14161;52.270;10.334;2023-10-08T02:53:06;2.85;;;0.77;;
26474;SDS011;14161;52.270;10.334;2023-10-08T02:55:43;1.65;;;0.50;;
26474;SDS011;14161;52.270;10.334;2023-10-08T02:58:14;1.90;;;0.60;;
26474;SDS011;14161;52.270;10.334;2023-10-08T03:00:41;3.33;;;0.60;;
26474;SDS011;14161;52.270;10.334;2023-10-08T03:03:07;2.13;;;0.82;;
26474;SDS011;14161;52.270;10.334;2023-10-08T03:05:44;2.65;;;0.88;;
26474;SDS011;14161;52.270;10.334;2023-10-08T03:08:13;2.42;;;0.73;;
26474;SDS011;14161;52.270;10.334;2023-10-08T03:10:48;1.45;;;0.70;;
26474;SDS011;14161;52.270;10.334;2023-10-08T03:13:16;1.88;;;0.90;;
26474;SDS011;14161;52.270;10.334;2023-10-08T03:15:42;3.60;;;0.95;;
26474;SDS011;14161;52.270;10.334;2023-10-08T03:18:33;1.23;;;0.60;;
26474;SDS011;14161;52.270;10.334;2023-10-08T03:21:03;3.85;;;1.10;;
26474;SDS011;14161;52.270;10.334;2023-10-08T03:23:30;2.28;;;0.88;;
26474;SDS011;14161;52.270;10.334;2023-10-08T03:26:02;1.70;;;0.63;;
26474;SDS011;14161;52.270;10.334;2023-10-08T03:28:37;1.63;;;0.90;;
26474;SDS011;14161;52.270;10.334;2023-10-08T03:31:03;1.92;;;0.80;;
26474;SDS011;14161;52.270;10.334;2023-10-08T03:33:41;3.97;;;0.90;;
26474;SDS011;14161;52.270;10.334;2023-10-08T03:36:08;3.13;;;0.80;;
26474;SDS011;14161;52.270;10.334;2023-10-08T03:38:46;3.85;;;0.90;;
26474;SDS011;14161;52.270;10.334;2023-10-08T03:41:25;1.10;;;0.68;;
26474;SDS011;14161;52.270;10.334;2023-10-08T03:43:54;2.90;;;0.82;;
26474;SDS011;14161;52.270;10.334;2023-10-08T03:46:26;3.10;;;0.82;;
26474;SDS011;14161;52.270;10.334;2023-10-08T03:48:55;2.13;;;0.70;;
26474;SDS011;14161;52.270;10.334;2023-10-08T03:51:22;1.55;;;0.70;;
26474;SDS011;14161;52.270;10.334;2023-10-08T03:53:52;1.98;;;0.90;;
26474;SDS011;14161;52.270;10.334;2023-10-08T03:56:32;1.75;;;0.80;;
26474;SDS011;14161;52.270;10.334;2023-10-08T03:59:01;2.60;;;0.93;;
26474;SDS011;14161;52.270;10.334;2023-10-08T04:01:38;2.65;;;0.90;;
26474;SDS011;14161;52.270;10.334;2023-10-08T04:04:07;1.75;;;0.75;;
26474;SDS011;14161;52.270;10.334;2023-10-08T04:06:39;1.45;;;0.80;;
26474;SDS011;14161;52.270;10.334;2023-10-08T04:09:12;2.05;;;0.50;;
26474;SDS011;14161;52.270;10.334;2023-10-08T04:11:41;3.42;;;0.88;;
26474;SDS011;14161;52.270;10.334;2023-10-08T04:14:16;1.60;;;0.90;;
26474;SDS011;14161;52.270;10.334;2023-10-08T04:16:46;1.90;;;0.80;;
26474;SDS011;14161;52.270;10.334;2023-10-08T04:19:12;2.50;;;0.77;;
26474;SDS011;14161;52.270;10.334;2023-10-08T04:21:38;3.28;;;0.70;;
26474;SDS011;14161;52.270;10.334;2023-10-08T04:24:07;3.53;;;0.88;;
26474;SDS011;14161;52.270;10.334;2023-10-08T04:26:36;3.63;;;0.90;;
26474;SDS011;14161;52.270;10.334;2023-10-08T04:29:05;0.65;;;0.60;;
26474;SDS011;14161;52.270;10.334;2023-10-08T04:31:33;1.42;;;0.57;;
26474;SDS011;14161;52.270;10.334;2023-10-08T04:34:09;3.85;;;1.02;;
26474;SDS011;14161;52.270;10.334;2023-10-08T04:36:42;2.45;;;0.77;;
26474;SDS011;14161;52.270;10.334;2023-10-08T04:39:10;1.58;;;0.77;;
26474;SDS011;14161;52.270;10.334;2023-10-08T04:41:41;2.35;;;0.93;;
26474;SDS011;14161;52.270;10.334;2023-10-08T04:44:10;2.58;;;0.93;;
26474;SDS011;14161;52.270;10.334;2023-10-08T04:46:42;5.07;;;0.82;;
26474;SDS011;14161;52.270;10.334;2023-10-08T04:49:10;2.92;;;0.70;;
26474;SDS011;14161;52.270;10.334;2023-10-08T04:51:51;2.85;;;0.98;;
26474;SDS011;14161;52.270;10.334;2023-10-08T04:54:20;1.40;;;0.60;;
26474;SDS011;14161;52.270;10.334;2023-10-08T04:56:45;2.53;;;0.88;;
26474;SDS011;14161;52.270;10.334;2023-10-08T04:59:14;2.40;;;0.93;;
26474;SDS011;14161;52.270;10.334;2023-10-08T05:01:42;2.25;;;1.00;;
26474;SDS011;14161;52.270;10.334;2023-10-08T05:04:27;2.47;;;0.70;;
26474;SDS011;14161;52.270;10.334;2023-10-08T05:06:58;1.60;;;0.73;;
26474;SDS011;14161;52.270;10.334;2023-10-08T05:09:39;2.05;;;0.65;;
26474;SDS011;14161;52.270;10.334;2023-10-08T05:12:13;2.42;;;0.50;;
26474;SDS011;14161;52.270;10.334;2023-10-08T05:14:56;3.40;;;0.80;;
26474;SDS011;14161;52.270;10.334;2023-10-08T05:17:43;1.55;;;0.60;;
26474;SDS011;14161;52.270;10.334;2023-10-08T05:20:23;2.15;;;0.82;;
26474;SDS011;14161;52.270;10.334;2023-10-08T05:23:12;2.15;;;0.90;;
26474;SDS011;14161;52.270;10.334;2023-10-08T05:25:54;1.77;;;0.65;;
26474;SDS011;14161;52.270;10.334;2023-10-08T05:28:44;1.52;;;0.70;;
26474;SDS011;14161;52.270;10.334;2023-10-08T05:31:47;2.40;;;0.70;;
26474;SDS011;14161;52.270;10.334;2023-10-08T05:34:18;1.45;;;0.85;;
26474;SDS011;14161;52.270;10.334;2023-10-08T05:36:57;1.80;;;0.75;;
26474;SDS011;14161;52.270;10.334;2023-10-08T05:39:25;1.85;;;0.63;;
26474;SDS011;14161;52.270;10.334;2023-10-08T05:42:09;3.05;;;0.80;;
26474;SDS011;14161;52.270;10.334;2023-10-08T05:44:56;5.90;;;1.38;;
26474;SDS011;14161;52.270;10.334;2023-10-08T05:47:34;2.10;;;0.98;;
26474;SDS011;14161;52.270;10.334;2023-10-08T05:50:00;2.10;;;0.75;;
26474;SDS011;14161;52.270;10.334;2023-10-08T05:52:41;1.88;;;0.70;;
26474;SDS011;14161;52.270;10.334;2023-10-08T05:55:18;1.08;;;0.75;;
26474;SDS011;14161;52.270;10.334;2023-10-08T06:00:45;1.27;;;0.60;;
26474;SDS011;14161;52.270;10.334;2023-10-08T06:03:30;3.15;;;0.60;;
26474;SDS011;14161;52.270;10.334;2023-10-08T06:06:05;1.53;;;0.57;;
26474;SDS011;14161;52.270;10.334;2023-10-08T06:08:40;1.65;;;0.63;;
26474;SDS011;14161;52.270;10.334;2023-10-08T06:11:25;1.73;;;0.63;;
26474;SDS011;14161;52.270;10.334;2023-10-08T06:14:08;2.30;;;0.77;;
26474;SDS011;14161;52.270;10.334;2023-10-08T06:16:53;3.95;;;1.00;;
26474;SDS011;14161;52.270;10.334;2023-10-08T06:19:38;1.52;;;0.60;;
26474;SDS011;14161;52.270;10.334;2023-10-08T06:22:04;2.30;;;0.85;;
26474;SDS011;14161;52.270;10.334;2023-10-08T06:24:30;1.55;;;0.60;;
26474;SDS011;14161;52.270;10.334;2023-10-08T06:27:01;2.03;;;0.85;;
26474;SDS011;14161;52.270;10.334;2023-10-08T06:29:30;2.75;;;0.70;;
26474;SDS011;14161;52.270;10.334;2023-10-08T06:31:56;2.60;;;0.95;;
26474;SDS011;14161;52.270;10.334;2023-10-08T06:34:27;2.22;;;0.80;;
26474;SDS011;14161;52.270;10.334;2023-10-08T06:36:57;2.58;;;1.00;;
26474;SDS011;14161;52.270;10.334;2023-10-08T06:39:24;4.30;;;0.80;;
26474;SDS011;14161;52.270;10.334;2023-10-08T06:41:54;2.33;;;0.70;;
26474;SDS011;14161;52.270;10.334;2023-10-08T06:44:26;2.85;;;0.70;;
26474;SDS011;14161;52.270;10.334;2023-10-08T06:46:53;2.90;;;0.90;;
26474;SDS011;14161;52.270;10.334;2023-10-08T06:49:20;2.85;;;0.85;;
26474;SDS011;14161;52.270;10.334;2023-10-08T06:51:49;1.63;;;0.80;;
26474;SDS011;14161;52.270;10.334;2023-10-08T06:54:16;1.60;;;0.77;;
26474;SDS011;14161;52.270;10.334;2023-10-08T06:56:43;2.80;;;0.88;;
26474;SDS011;14161;52.270;10.334;2023-10-08T06:59:14;3.50;;;0.90;;
26474;SDS011;14161;52.270;10.334;2023-10-08T07:01:42;2.28;;;1.00;;
26474;SDS011;14161;52.270;10.334;2023-10-08T07:04:11;2.70;;;1.00;;
26474;SDS011;14161;52.270;10.334;2023-10-08T07:06:40;2.58;;;0.90;;
26474;SDS011;14161;52.270;10.334;2023-10-08T07:09:09;2.42;;;0.95;;
26474;SDS011;14161;52.270;10.334;2023-10-08T07:11:51;2.53;;;1.00;;
26474;SDS011;14161;52.270;10.334;2023-10-08T07:14:28;2.40;;;1.08;;
26474;SDS011;14161;52.270;10.334;2023-10-08T07:16:58;1.73;;;0.98;;
26474;SDS011;14161;52.270;10.334;2023-10-08T07:19:25;3.85;;;1.08;;
26474;SDS011;14161;52.270;10.334;2023-10-08T07:22:02;3.10;;;1.58;;
26474;SDS011;14161;52.270;10.334;2023-10-08T07:24:28;3.83;;;1.60;;
26474;SDS011;14161;52.270;10.334;2023-10-08T07:26:56;2.58;;;1.17;;
26474;SDS011;14161;52.270;10.334;2023-10-08T07:29:22;2.83;;;1.23;;
26474;SDS011;14161;52.270;10.334;2023-10-08T07:31:50;2.92;;;1.60;;
26474;SDS011;14161;52.270;10.334;2023-10-08T07:34:17;3.30;;;1.48;;
26474;SDS011;14161;52.270;10.334;2023-10-08T07:36:47;5.25;;;3.13;;
26474;SDS011;14161;52.270;10.334;2023-10-08T07:39:14;5.68;;;3.63;;
26474;SDS011;14161;52.270;10.334;2023-10-08T07:41:59;3.67;;;2.15;;
26474;SDS011;14161;52.270;10.334;2023-10-08T07:44:26;2.88;;;1.95;;
26474;SDS011;14161;52.270;10.334;2023-10-08T07:47:01;3.40;;;1.75;;
26474;SDS011;14161;52.270;10.334;2023-10-08T07:49:30;1.98;;;1.00;;
26474;SDS011;14161;52.270;10.334;2023-10-08T07:51:56;2.63;;;1.45;;
26474;SDS011;14161;52.270;10.334;2023-10-08T07:54:23;2.70;;;1.00;;
26474;SDS011;14161;52.270;10.334;2023-10-08T07:56:50;2.22;;;0.93;;
26474;SDS011;14161;52.270;10.334;2023-10-08T07:59:36;5.00;;;1.40;;
26474;SDS011;14161;52.270;10.334;2023-10-08T08:02:12;2.30;;;1.00;;
26474;SDS011;14161;52.270;10.334;2023-10-08T08:04:39;2.20;;;1.00;;
26474;SDS011;14161;52.270;10.334;2023-10-08T08:07:05;4.72;;;1.60;;
26474;SDS011;14161;52.270;10.334;2023-10-08T08:09:31;3.38;;;1.27;;
26474;SDS011;14161;52.270;10.334;2023-10-08T08:12:04;5.00;;;1.60;;
26474;SDS011;14161;52.270;10.334;2023-10-08T08:14:33;5.50;;;1.85;;
26474;SDS011;14161;52.270;10.334;2023-10-08T08:16:58;3.95;;;2.83;;
26474;SDS011;14161;52.270;10.334;2023-10-08T08:19:38;5.47;;;3.45;;
26474;SDS011;14161;52.270;10.334;2023-10-08T08:22:04;7.22;;;3.08;;
26474;SDS011;14161;52.270;10.334;2023-10-08T08:24:30;4.05;;;2.50;;
26474;SDS011;14161;52.270;10.334;2023-10-08T08:27:01;3.05;;;1.42;;
26474;SDS011;14161;52.270;10.334;2023-10-08T08:29:33;3.80;;;1.23;;
26474;SDS011;14161;52.270;10.334;2023-10-08T08:32:09;4.63;;;1.10;;
26474;SDS011;14161;52.270;10.334;2023-10-08T08:34:38;2.78;;;0.80;;
26474;SDS011;14161;52.270;10.334;2023-10-08T08:37:03;2.00;;;0.80;;
26474;SDS011;14161;52.270;10.334;2023-10-08T08:39:28;3.15;;;1.08;;
26474;SDS011;14161;52.270;10.334;2023-10-08T08:42:00;1.88;;;0.77;;
26474;SDS011;14161;52.270;10.334;2023-10-08T08:44:31;2.58;;;0.80;;
26474;SDS011;14161;52.270;10.334;2023-10-08T08:47:00;3.28;;;1.08;;
26474;SDS011;14161;52.270;10.334;2023-10-08T08:49:32;1.67;;;0.88;;
26474;SDS011;14161;52.270;10.334;2023-10-08T08:52:02;5.28;;;1.15;;
26474;SDS011;14161;52.270;10.334;2023-10-08T08:54:29;2.90;;;0.90;;
26474;SDS011;14161;52.270;10.334;2023-10-08T08:56:57;1.48;;;0.88;;
26474;SDS011;14161;52.270;10.334;2023-10-08T08:59:25;1.30;;;0.75;;
26474;SDS011;14161;52.270;10.334;2023-10-08T09:01:52;3.10;;;0.80;;
26474;SDS011;14161;52.270;10.334;2023-10-08T09:04:26;5.70;;;1.10;;
26474;SDS011;14161;52.270;10.334;2023-10-08T09:06:54;3.30;;;0.95;;
26474;SDS011;14161;52.270;10.334;2023-10-08T09:09:19;4.88;;;1.15;;
26474;SDS011;14161;52.270;10.334;2023-10-08T09:11:48;3.13;;;0.90;;
26474;SDS011;14161;52.270;10.334;2023-10-08T09:14:26;3.38;;;1.30;;
26474;SDS011;14161;52.270;10.334;2023-10-08T09:16:54;0.88;;;0.63;;
26474;SDS011;14161;52.270;10.334;2023-10-08T09:19:20;1.45;;;0.65;;
26474;SDS011;14161;52.270;10.334;2023-10-08T09:21:59;2.65;;;0.60;;
26474;SDS011;14161;52.270;10.334;2023-10-08T09:24:36;2.13;;;0.90;;
26474;SDS011;14161;52.270;10.334;2023-10-08T09:27:06;3.58;;;0.90;;
26474;SDS011;14161;52.270;10.334;2023-10-08T09:29:33;1.88;;;0.75;;
26474;SDS011;14161;52.270;10.334;2023-10-08T09:32:05;2.55;;;0.82;;
26474;SDS011;14161;52.270;10.334;2023-10-08T09:34:33;2.88;;;0.70;;
26474;SDS011;14161;52.270;10.334;2023-10-08T09:36:59;2.88;;;0.98;;
26474;SDS011;14161;52.270;10.334;2023-10-08T09:39:25;2.13;;;0.75;;
26474;SDS011;14161;52.270;10.334;2023-10-08T09:41:54;4.50;;;0.70;;
26474;SDS011;14161;52.270;10.334;2023-10-08T09:44:20;1.63;;;0.63;;
26474;SDS011;14161;52.270;10.334;2023-10-08T09:46:51;3.33;;;0.88;;
26474;SDS011;14161;52.270;10.334;2023-10-08T09:49:26;3.50;;;0.63;;
26474;SDS011;14161;52.270;10.334;2023-10-08T09:51:58;2.40;;;0.60;;
26474;SDS011;14161;52.270;10.334;2023-10-08T09:54:28;2.60;;;0.80;;
26474;SDS011;14161;52.270;10.334;2023-10-08T09:56:59;2.10;;;0.73;;
26474;SDS011;14161;52.270;10.334;2023-10-08T09:59:28;2.03;;;0.80;;
26474;SDS011;14161;52.270;10.334;2023-10-08T10:01:54;3.33;;;0.80;;
26474;SDS011;14161;52.270;10.334;2023-10-08T10:04:24;1.60;;;0.82;;
26474;SDS011;14161;52.270;10.334;2023-10-08T10:06:50;1.90;;;0.55;;
26474;SDS011;14161;52.270;10.334;2023-10-08T10:09:25;5.45;;;0.98;;
26474;SDS011;14161;52.270;10.334;2023-10-08T10:11:52;2.45;;;0.90;;
26474;SDS011;14161;52.270;10.334;2023-10-08T10:14:21;4.43;;;1.00;;
26474;SDS011;14161;52.270;10.334;2023-10-08T10:16:48;2.70;;;0.75;;
26474;SDS011;14161;52.270;10.334;2023-10-08T10:19:16;4.05;;;1.35;;
26474;SDS011;14161;52.270;10.334;2023-10-08T10:21:46;5.10;;;0.93;;
26474;SDS011;14161;52.270;10.334;2023-10-08T10:24:22;3.17;;;0.80;;
26474;SDS011;14161;52.270;10.334;2023-10-08T10:26:48;2.03;;;0.80;;
26474;SDS011;14161;52.270;10.334;2023-10-08T10:29:19;2.65;;;0.85;;
26474;SDS011;14161;52.270;10.334;2023-10-08T10:31:49;4.97;;;1.30;;
26474;SDS011;14161;52.270;10.334;2023-10-08T10:34:18;2.80;;;0.82;;
26474;SDS011;14161;52.270;10.334;2023-10-08T10:36:57;4.82;;;1.02;;
26474;SDS011;14161;52.270;10.334;2023-10-08T10:39:25;1.95;;;0.90;;
26474;SDS011;14161;52.270;10.334;2023-10-08T10:41:51;2.88;;;0.80;;
26474;SDS011;14161;52.270;10.334;2023-10-08T10:44:22;4.60;;;0.80;;
26474;SDS011;14161;52.270;10.334;2023-10-08T10:46:49;3.53;;;0.90;;
26474;SDS011;14161;52.270;10.334;2023-10-08T10:49:17;3.80;;;0.82;;
26474;SDS011;14161;52.270;10.334;2023-10-08T10:51:49;3.03;;;1.00;;
26474;SDS011;14161;52.270;10.334;2023-10-08T10:54:23;4.63;;;1.17;;
26474;SDS011;14161;52.270;10.334;2023-10-08T10:56:52;4.22;;;0.95;;
26474;SDS011;14161;52.270;10.334;2023-10-08T10:59:34;3.00;;;1.00;;
26474;SDS011;14161;52.270;10.334;2023-10-08T11:02:03;2.90;;;0.85;;
26474;SDS011;14161;52.270;10.334;2023-10-08T11:04:46;2.53;;;0.85;;
26474;SDS011;14161;52.270;10.334;2023-10-08T11:07:16;4.90;;;1.05;;
26474;SDS011;14161;52.270;10.334;2023-10-08T11:09:49;3.80;;;1.08;;
26474;SDS011;14161;52.270;10.334;2023-10-08T11:12:17;4.63;;;1.42;;
26474;SDS011;14161;52.270;10.334;2023-10-08T11:14:57;2.80;;;0.90;;
26474;SDS011;14161;52.270;10.334;2023-10-08T11:17:23;2.83;;;0.88;;
26474;SDS011;14161;52.270;10.334;2023-10-08T11:19:49;4.03;;;1.10;;
26474;SDS011;14161;52.270;10.334;2023-10-08T11:22:16;2.72;;;1.10;;
26474;SDS011;14161;52.270;10.334;2023-10-08T11:24:42;3.83;;;1.08;;
26474;SDS011;14161;52.270;10.334;2023-10-08T11:27:09;1.95;;;0.80;;
26474;SDS011;14161;52.270;10.334;2023-10-08T11:32:09;2.95;;;1.25;;
26474;SDS011;14161;52.270;10.334;2023-10-08T11:34:38;6.35;;;1.33;;
26474;SDS011;14161;52.270;10.334;2023-10-08T11:37:04;1.83;;;0.90;;
26474;SDS011;14161;52.270;10.334;2023-10-08T11:39:45;2.90;;;1.10;;
26474;SDS011;14161;52.270;10.334;2023-10-08T11:42:11;3.15;;;0.90;;
26474;SDS011;14161;52.270;10.334;2023-10-08T11:44:55;2.58;;;1.10;;
26474;SDS011;14161;52.270;10.334;2023-10-08T11:47:24;3.85;;;1.17;;
26474;SDS011;14161;52.270;10.334;2023-10-08T11:49:56;4.07;;;1.40;;
26474;SDS011;14161;52.270;10.334;2023-10-08T11:52:35;3.28;;;1.20;;
26474;SDS011;14161;52.270;10.334;2023-10-08T11:55:06;4.65;;;0.93;;
26474;SDS011;14161;52.270;10.334;2023-10-08T11:57:32;3.85;;;1.55;;
26474;SDS011;14161;52.270;10.334;2023-10-08T12:00:01;3.75;;;1.10;;
26474;SDS011;14161;52.270;10.334;2023-10-08T12:02:41;3.13;;;1.00;;
26474;SDS011;14161;52.270;10.334;2023-10-08T12:05:08;3.22;;;1.02;;
26474;SDS011;14161;52.270;10.334;2023-10-08T12:07:44;1.85;;;0.90;;
26474;SDS011;14161;52.270;10.334;2023-10-08T12:10:16;2.92;;;0.77;;
26474;SDS011;14161;52.270;10.334;2023-10-08T12:15:20;3.30;;;1.10;;
26474;SDS011;14161;52.270;10.334;2023-10-08T12:17:49;2.22;;;1.17;;
26474;SDS011;14161;52.270;10.334;2023-10-08T12:20:37;2.53;;;1.00;;
26474;SDS011;14161;52.270;10.334;2023-10-08T12:23:04;2.22;;;1.00;;
26474;SDS011;14161;52.270;10.334;2023-10-08T12:25:30;1.40;;;0.80;;
26474;SDS011;14161;52.270;10.334;2023-10-08T12:27:58;3.58;;;1.00;;
26474;SDS011;14161;52.270;10.334;2023-10-08T12:30:30;3.75;;;1.42;;
26474;SDS011;14161;52.270;10.334;2023-10-08T12:32:59;2.50;;;0.93;;
26474;SDS011;14161;52.270;10.334;2023-10-08T12:35:25;3.38;;;0.95;;
26474;SDS011;14161;52.270;10.334;2023-10-08T12:37:51;5.80;;;1.20;;
26474;SDS011;14161;52.270;10.334;2023-10-08T12:40:17;3.03;;;1.15;;
26474;SDS011;14161;52.270;10.334;2023-10-08T12:42:51;3.78;;;1.20;;
26474;SDS011;14161;52.270;10.334;2023-10-08T12:45:17;4.05;;;1.08;;
26474;SDS011;14161;52.270;10.334;2023-10-08T12:47:47;3.35;;;0.93;;
26474;SDS011;14161;52.270;10.334;2023-10-08T12:50:16;3.88;;;1.08;;
26474;SDS011;14161;52.270;10.334;2023-10-08T12:52:45;2.65;;;1.10;;
26474;SDS011;14161;52.270;10.334;2023-10-08T12:55:18;3.50;;;1.05;;
26474;SDS011;14161;52.270;10.334;2023-10-08T12:57:49;2.53;;;0.75;;
26474;SDS011;14161;52.270;10.334;2023-10-08T13:00:21;3.67;;;1.10;;
26474;SDS011;14161;52.270;10.334;2023-10-08T13:02:49;3.70;;;1.15;;
26474;SDS011;14161;52.270;10.334;2023-10-08T13:05:21;2.95;;;1.00;;
26474;SDS011;14161;52.270;10.334;2023-10-08T13:07:56;4.40;;;1.30;;
26474;SDS011;14161;52.270;10.334;2023-10-08T13:10:28;2.78;;;0.80;;
26474;SDS011;14161;52.270;10.334;2023-10-08T13:12:56;3.83;;;0.82;;
26474;SDS011;14161;52.270;10.334;2023-10-08T13:15:22;2.63;;;0.82;;
26474;SDS011;14161;52.270;10.334;2023-10-08T13:17:50;2.55;;;1.00;;
26474;SDS011;14161;52.270;10.334;2023-10-08T13:20:17;2.78;;;1.15;;
26474;SDS011;14161;52.270;10.334;2023-10-08T13:22:43;2.30;;;0.90;;
26474;SDS011;14161;52.270;10.334;2023-10-08T13:25:09;3.92;;;1.20;;
26474;SDS011;14161;52.270;10.334;2023-10-08T13:27:35;2.92;;;0.88;;
26474;SDS011;14161;52.270;10.334;2023-10-08T13:30:07;2.55;;;1.00;;
26474;SDS011;14161;52.270;10.334;2023-10-08T13:32:34;3.85;;;1.33;;
26474;SDS011;14161;52.270;10.334;2023-10-08T13:35:04;3.60;;;1.10;;
26474;SDS011;14161;52.270;10.334;2023-10-08T13:37:33;5.82;;;1.35;;
26474;SDS011;14161;52.270;10.334;2023-10-08T13:40:00;1.98;;;1.00;;
26474;SDS011;14161;52.270;10.334;2023-10-08T13:42:26;2.90;;;1.02;;
26474;SDS011;14161;52.270;10.334;2023-10-08T13:44:53;2.08;;;0.80;;
26474;SDS011;14161;52.270;10.334;2023-10-08T13:47:19;3.42;;;1.00;;
26474;SDS011;14161;52.270;10.334;2023-10-08T13:49:47;2.65;;;0.90;;
26474;SDS011;14161;52.270;10.334;2023-10-08T13:52:15;5.28;;;1.20;;
26474;SDS011;14161;52.270;10.334;2023-10-08T13:54:42;3.75;;;1.05;;
26474;SDS011;14161;52.270;10.334;2023-10-08T13:57:12;2.83;;;1.13;;
26474;SDS011;14161;52.270;10.334;2023-10-08T13:59:40;5.65;;;1.30;;
26474;SDS011;14161;52.270;10.334;2023-10-08T14:02:07;2.72;;;1.08;;
26474;SDS011;14161;52.270;10.334;2023-10-08T14:04:42;3.95;;;1.10;;
26474;SDS011;14161;52.270;10.334;2023-10-08T14:07:12;4.75;;;1.30;;
26474;SDS011;14161;52.270;10.334;2023-10-08T14:09:42;4.07;;;1.13;;
26474;SDS011;14161;52.270;10.334;2023-10-08T14:12:10;1.90;;;1.00;;
26474;SDS011;14161;52.270;10.334;2023-10-08T14:14:40;1.88;;;1.02;;
26474;SDS011;14161;52.270;10.334;2023-10-08T14:17:09;3.33;;;1.08;;
26474;SDS011;14161;52.270;10.334;2023-10-08T14:19:40;3.97;;;1.42;;
26474;SDS011;14161;52.270;10.334;2023-10-08T14:22:16;3.30;;;1.45;;
26474;SDS011;14161;52.270;10.334;2023-10-08T14:24:42;8.63;;;4.20;;
26474;SDS011;14161;52.270;10.334;2023-10-08T14:27:10;5.95;;;4.50;;
26474;SDS011;14161;52.270;10.334;2023-10-08T14:29:39;3.45;;;2.03;;
26474;SDS011;14161;52.270;10.334;2023-10-08T14:32:15;2.88;;;1.27;;
26474;SDS011;14161;52.270;10.334;2023-10-08T14:34:40;2.53;;;1.42;;
26474;SDS011;14161;52.270;10.334;2023-10-08T14:37:11;2.28;;;1.00;;
26474;SDS011;14161;52.270;10.334;2023-10-08T14:39:55;3.67;;;0.93;;
26474;SDS011;14161;52.270;10.334;2023-10-08T14:42:39;3.33;;;1.02;;
26474;SDS011;14161;52.270;10.334;2023-10-08T14:45:23;1.65;;;0.88;;
26474;SDS011;14161;52.270;10.334;2023-10-08T14:47:54;5.60;;;1.52;;
26474;SDS011;14161;52.270;10.334;2023-10-08T14:50:21;3.88;;;1.20;;
26474;SDS011;14161;52.270;10.334;2023-10-08T14:52:47;3.47;;;1.52;;
26474;SDS011;14161;52.270;10.334;2023-10-08T14:55:13;2.67;;;1.20;;
26474;SDS011;14161;52.270;10.334;2023-10-08T14:57:39;4.05;;;1.50;;
26474;SDS011;14161;52.270;10.334;2023-10-08T15:00:05;1.98;;;1.08;;
26474;SDS011;14161;52.270;10.334;2023-10-08T15:02:31;3.55;;;0.93;;